Mountain Home, Wyoming
Current Conditions -  °F | °C
As of 10:53 AM on Thursday 23 Oct 2014 (Local Time) from KLAR Reporting Station
Clear Clear  
Wind Chill: 56°   Ceiling: Unl
Heat Index: 56°   Visibility: 10mi
Dew Point: 28°   Wind: 25mph
Humidity: 34%   Direction: 260°W
Pressure: 30.2"   Gusts: 31mph
Location:  41.2601°N, 105.565°W
Report Text: KLAR 231653Z AUTO 26022G27KT 10SM CLR 13/M02 A3020 RMK AO2 PK WND 23028/1641 SLP168 T01331022
Loading
Personal Weather Stations






























Interactive Weather Map
Tropical Storm Tracking
New forecast layout! Learn more

10-Day Weather Forecast

Advertisements
Track Severe Weather on mobile